Flag for USA

Past Weather in 40°26'49.3"N, 75°57'58.7"W, USA — Yesterday and Last 2 Weeks

Currently: 82 °F. Passing clouds. (Weather station: Reading Regional Airport, USA). See more current weather

Past Weather in 40°26'49.3"N, 75°57'58.7"W — Graph

°F

40°26'49.3"N, 75°57'58.7"W Temperature Yesterday

Maximum temperature yesterday: 91 °F (at 2:54 pm)
Minimum temperature yesterday: 67 °F (at 3:54 am)
Average temperature yesterday: 76 °F

High & Low Weather Summary for the Past Weeks

 TemperatureHumidityPressure
High91 °F (May 21, 2:54 pm)100% (May 21, 3:54 am)30.39 "Hg (May 21, 3:54 am)
Low44 °F (May 8, 2:54 am)13% (May 9, 5:54 pm)29.57 "Hg (May 16, 4:54 pm)
Average65 °F68%30.01 "Hg
* Reported May 7 8:00 am — May 22 8:54 am, 40°26'49.3"N, 75°57'58.7"W. Weather by CustomWeather, © 2022

Note: Actual official high and low records may vary slightly from our data, if they occured in-between our weather recording intervals... More about our weather records

40°26'49.3"N, 75°57'58.7"W Weather History for the Previous 24 Hours

Scroll right to see more
 ConditionsComfort  
Time TempWeatherWind HumidityBarometerVisibility
8:54 am
Sun, May 22
77 °FPassing clouds.N/A82%30.04 "Hg10 mi
7:54 am73 °FFog.N/A88%30.04 "Hg5 mi
6:54 am72 °FBroken clouds.N/A84%30.03 "Hg5 mi
5:54 am71 °FFog.N/A87%30.01 "Hg5 mi
4:54 am72 °FClear.N/A84%29.98 "Hg7 mi
3:54 am74 °FClear.N/A76%29.98 "Hg7 mi
2:54 am78 °FClear.N/A66%29.99 "Hg8 mi
1:54 am79 °FPassing clouds.N/A67%30.02 "Hg8 mi
12:54 am77 °FPassing clouds.N/A71%30.02 "Hg7 mi
11:54 pm
Sat, May 21
81 °FPassing clouds.N/A58%30.04 "Hg8 mi
10:54 pm79 °FClear.N/A62%30.04 "Hg8 mi
9:54 pm82 °FClear.N/A58%30.03 "Hg8 mi
8:54 pm84 °FClear.N/A57%30.01 "Hg10 mi
6:54 pm89 °FPassing clouds.N/A46%29.97 "Hg10 mi
5:54 pm91 °FSunny.N/A44%30.00 "Hg7 mi
4:54 pm91 °FSunny.N/A44%30.01 "Hg7 mi
3:54 pm91 °FScattered clouds.N/A45%30.01 "Hg10 mi
2:54 pm91 °FPassing clouds.N/A45%30.02 "Hg10 mi
1:54 pm90 °FSunny.N/A47%30.03 "Hg7 mi
12:54 pm89 °FSunny.N/A50%30.03 "Hg8 mi
11:54 am85 °FSunny.N/A65%30.03 "Hg8 mi
10:54 am78 °FSunny.N/A79%30.02 "Hg5 mi
10:14 am74 °FFog.N/A88%30.03 "Hg4 mi
10:01 am72 °FFog.3 mph91%30.03 "Hg2 mi
Weather by CustomWeather, © 2022

See weather overview